Aérodrome :
LOGIN :

S'inscrire | Disclaimer

   EN    FR    IT 

 










Légende :    VFR   VFR Marginal   IFR   IFR Intensif   IFR Très Intensif
Visi : 
Plafond : 
>= 8 km
>= 3000ft
5 à 8 km
1000 à 3000 ft
1500m à 5 km
500 à 1000 ft
800 à 1500m
200 à 500 ft
< 800m
< 200 ft
Symboles :   Orages  Brouillard  Fortes neiges  Fortes précipitations  Vent > 20 kt
SIGMETs :   Divers  Orages  Givrage  Turbulence  Onde Orograph.  Cendres Volcan.







- Altitude de l'aérodrome : 3 ft
- Code IATA : LWR


EHLW - Leuuwarden Air Base

DERNIER METAR :
  • 181055Z AUTO 10006KT 040V180 9999 OVC064 14/12 Q1014 BLU 10003KT 9999 BKN033

METARs EXPIRÉS :
  • 181025Z AUTO 08004KT 010V130 9999 OVC035 14/11 Q1014 BLU 10003KT 9999 BKN033
  • 180955Z AUTO 05003KT 020V110 9999 OVC032 13/11 Q1014 BLU 10003KT 9999 BKN033
  • 180940Z AUTO VRB02KT 9999 OVC033 13/11 Q1014 BLU 10003KT 9999 BKN033
  • 180925Z AUTO 10003KT 030V150 9999 OVC033 13/11 Q1014 BLU 10003KT 8000 BKN040
  • 180855Z AUTO 10003KT 050V170 8000 BR SCT034 BKN046 OVC056 13/12 Q1015 BLU 10003KT 8000 BKN040
  • 180825Z AUTO VRB02KT 9999 OVC036 12/12 Q1015 BLU 10003KT 8000 BKN040

TAF COR TAF EHLW
Valide du 18 à 09h jusqu'au 18 à 21h UTC


180832Z 1809/1821 09004KT 9999 BKN035
Pas de NOTAMs connus pour ce terrain.



MET'MAP, la Météo Aéronautique d'un coup d'oeil ! - Copyright ORBIFLY Décembre 2007 - Disclaimer

ORBIFLY MET'MAP TEAM :

Programmation & Développement : Alexandra Zaïnal
Conception & Développement : Baudouin d'Aumeries
Co-Programmation & Développement : Marc-Olivier Méhu
Soutien technique & logistique : Manuel Goepfert

Contact : metmap@orbifly.com




SOURCES & CREDITS :

   NOAA